PWSweather.com
Personal Weather Stations
Station Observations
KTNBARTL6
Rockyford Subdivision, Bartlett, TN 38002

Rockyford SubdivisionBartlett, TN 38002

Lat: 35.2684679, Lon: -89.8370406

Elevation: 260

Station Type: Davis Vantage Pro2 Wireless

http://www.memphisweather.net/wxlive.shtml

Latest ConditionsUpdated 11:45:02 AM CST Tuesday, Jan 22, 2019
Currently Today's Max Today's Min Today's Average
Temperature 48.0°F8.9°C 48.0°F8.9°C 35.1°F1.7°C 40.2°F4.6°C
Dew Point 38.3°F3.5°C 38.3°F3.5°C 24.2°F-4.3°C 28.8°F-1.8°C
Winds 5.0 mph S8.0 kmh S 9.0 mph -14.5 kmh - - 3.0 mph 4.8 kmh
Wind Gusts 15.0 mph24.1 kmh 18.0 mph29.0 kmh - -
Humidity 69% 69% 60% 63%
Pressure 30.19 in1022.4 mb 30.29 in1025.7 mb 30.19 in1022.4 mb -
Hour Temp Dew Point Humidity Winds Wind Gusts Pressure Precip Precip Rate Daily Precip Total
11:45 AM 48.0°F8.9°C 38.3°F3.5°C 69% 5.0 mph S8.0 kmh S 15.0 mph24.1 kmh 30.19 in1022.4 mb 0.00 in0.0 mm 0.00 in0.0 mm 0.00 in0.0 mm
11:35 AM 47.7°F8.7°C 38.0°F3.3°C 69% 2.0 mph S3.2 kmh S 10.0 mph16.1 kmh 30.20 in1022.7 mb 0.00 in0.0 mm 0.00 in0.0 mm 0.00 in0.0 mm
11:25 AM 47.0°F8.3°C 37.4°F3.0°C 69% 4.0 mph SSW6.4 kmh SSW 16.0 mph25.7 kmh 30.20 in1022.7 mb 0.00 in0.0 mm 0.00 in0.0 mm 0.00 in0.0 mm
11:15 AM 46.7°F8.2°C 36.7°F2.6°C 68% 5.0 mph S8.0 kmh S 11.0 mph17.7 kmh 30.22 in1023.4 mb 0.00 in0.0 mm 0.00 in0.0 mm 0.00 in0.0 mm
11:05 AM 46.3°F7.9°C 36.3°F2.4°C 68% 9.0 mph SE14.5 kmh SE 14.0 mph22.5 kmh 30.21 in1023.0 mb 0.00 in0.0 mm 0.00 in0.0 mm 0.00 in0.0 mm
10:55 AM 46.0°F7.8°C 36.1°F2.3°C 68% 4.0 mph S6.4 kmh S 12.0 mph19.3 kmh 30.22 in1023.4 mb 0.00 in0.0 mm 0.00 in0.0 mm 0.00 in0.0 mm
10:45 AM 45.8°F7.7°C 35.9°F2.2°C 68% 1.0 mph S1.6 kmh S 14.0 mph22.5 kmh 30.23 in1023.7 mb 0.00 in0.0 mm 0.00 in0.0 mm 0.00 in0.0 mm
10:35 AM 45.6°F7.6°C 35.3°F1.8°C 67% 2.0 mph E3.2 kmh E 10.0 mph16.1 kmh 30.23 in1023.7 mb 0.00 in0.0 mm 0.00 in0.0 mm 0.00 in0.0 mm
10:25 AM 45.4°F7.4°C 35.1°F1.7°C 67% 3.0 mph SE4.8 kmh SE 11.0 mph17.7 kmh 30.23 in1023.7 mb 0.00 in0.0 mm 0.00 in0.0 mm 0.00 in0.0 mm
10:15 AM 44.9°F7.2°C 34.6°F1.4°C 67% 3.0 mph S4.8 kmh S 10.0 mph16.1 kmh 30.24 in1024.0 mb 0.00 in0.0 mm 0.00 in0.0 mm 0.00 in0.0 mm
10:05 AM 44.7°F7.1°C 34.4°F1.3°C 67% 5.0 mph SSE8.0 kmh SSE 7.0 mph11.3 kmh 30.24 in1024.0 mb 0.00 in0.0 mm 0.00 in0.0 mm 0.00 in0.0 mm
09:55 AM 44.3°F6.8°C 33.7°F0.9°C 66% 4.0 mph SE6.4 kmh SE 11.0 mph17.7 kmh 30.23 in1023.7 mb 0.00 in0.0 mm 0.00 in0.0 mm 0.00 in0.0 mm
09:45 AM 44.0°F6.7°C 33.0°F0.6°C 65% Calm Calm 11.0 mph17.7 kmh 30.23 in1023.7 mb 0.00 in0.0 mm 0.00 in0.0 mm 0.00 in0.0 mm
09:35 AM 43.6°F6.4°C 32.6°F0.3°C 65% 3.0 mph S4.8 kmh S 12.0 mph19.3 kmh 30.22 in1023.4 mb 0.00 in0.0 mm 0.00 in0.0 mm 0.00 in0.0 mm
09:25 AM 43.3°F6.3°C 32.0°F0.0°C 64% 8.0 mph S12.9 kmh S 11.0 mph17.7 kmh 30.22 in1023.4 mb 0.00 in0.0 mm 0.00 in0.0 mm 0.00 in0.0 mm
09:15 AM 42.9°F6.1°C 31.2°F-0.4°C 63% Calm Calm 13.0 mph20.9 kmh 30.22 in1023.4 mb 0.00 in0.0 mm 0.00 in0.0 mm 0.00 in0.0 mm
09:05 AM 42.5°F5.8°C 30.8°F-0.7°C 63% 7.0 mph SE11.3 kmh SE 12.0 mph19.3 kmh 30.23 in1023.7 mb 0.00 in0.0 mm 0.00 in0.0 mm 0.00 in0.0 mm
08:55 AM 41.9°F5.5°C 30.2°F-1.0°C 63% 5.0 mph SSE8.0 kmh SSE 12.0 mph19.3 kmh 30.23 in1023.7 mb 0.00 in0.0 mm 0.00 in0.0 mm 0.00 in0.0 mm
08:45 AM 41.6°F5.3°C 30.0°F-1.1°C 63% 7.0 mph ESE11.3 kmh ESE 12.0 mph19.3 kmh 30.24 in1024.0 mb 0.00 in0.0 mm 0.00 in0.0 mm 0.00 in0.0 mm
08:35 AM 41.3°F5.2°C 29.7°F-1.3°C 63% 4.0 mph SSE6.4 kmh SSE 9.0 mph14.5 kmh 30.24 in1024.0 mb 0.00 in0.0 mm 0.00 in0.0 mm 0.00 in0.0 mm
08:25 AM 41.1°F5.1°C 29.5°F-1.4°C 63% 4.0 mph ESE6.4 kmh ESE 12.0 mph19.3 kmh 30.25 in1024.4 mb 0.00 in0.0 mm 0.00 in0.0 mm 0.00 in0.0 mm
08:15 AM 40.9°F4.9°C 28.9°F-1.7°C 62% 2.0 mph SSW3.2 kmh SSW 10.0 mph16.1 kmh 30.24 in1024.0 mb 0.00 in0.0 mm 0.00 in0.0 mm 0.00 in0.0 mm
08:05 AM 40.9°F4.9°C 28.9°F-1.7°C 62% Calm Calm 12.0 mph19.3 kmh 30.25 in1024.4 mb 0.00 in0.0 mm 0.00 in0.0 mm 0.00 in0.0 mm
07:55 AM 40.8°F4.9°C 28.8°F-1.8°C 62% 2.0 mph SE3.2 kmh SE 8.0 mph12.9 kmh 30.25 in1024.4 mb 0.00 in0.0 mm 0.00 in0.0 mm 0.00 in0.0 mm
07:45 AM 40.9°F4.9°C 28.5°F-1.9°C 61% 5.0 mph SE8.0 kmh SE 11.0 mph17.7 kmh 30.25 in1024.4 mb 0.00 in0.0 mm 0.00 in0.0 mm 0.00 in0.0 mm
07:35 AM 40.8°F4.9°C 28.4°F-2.0°C 61% 2.0 mph S3.2 kmh S 15.0 mph24.1 kmh 30.25 in1024.4 mb 0.00 in0.0 mm 0.00 in0.0 mm 0.00 in0.0 mm
07:25 AM 40.7°F4.8°C 28.3°F-2.1°C 61% 4.0 mph S6.4 kmh S 18.0 mph29.0 kmh 30.25 in1024.4 mb 0.00 in0.0 mm 0.00 in0.0 mm 0.00 in0.0 mm
07:15 AM 40.6°F4.8°C 28.2°F-2.1°C 61% 7.0 mph SE11.3 kmh SE 11.0 mph17.7 kmh 30.25 in1024.4 mb 0.00 in0.0 mm 0.00 in0.0 mm 0.00 in0.0 mm
07:05 AM 40.5°F4.7°C 28.1°F-2.2°C 61% Calm Calm 11.0 mph17.7 kmh 30.26 in1024.7 mb 0.00 in0.0 mm 0.00 in0.0 mm 0.00 in0.0 mm
06:55 AM 40.3°F4.6°C 27.5°F-2.5°C 60% 7.0 mph E11.3 kmh E 10.0 mph16.1 kmh 30.27 in1025.1 mb 0.00 in0.0 mm 0.00 in0.0 mm 0.00 in0.0 mm
06:45 AM 40.2°F4.6°C 27.4°F-2.6°C 60% Calm Calm 6.0 mph9.7 kmh 30.27 in1025.1 mb 0.00 in0.0 mm 0.00 in0.0 mm 0.00 in0.0 mm
06:35 AM 40.1°F4.5°C 27.4°F-2.6°C 60% 2.0 mph SSE3.2 kmh SSE 10.0 mph16.1 kmh 30.27 in1025.1 mb 0.00 in0.0 mm 0.00 in0.0 mm 0.00 in0.0 mm
06:25 AM 40.0°F4.4°C 27.3°F-2.6°C 60% 3.0 mph ESE4.8 kmh ESE 14.0 mph22.5 kmh 30.27 in1025.1 mb 0.00 in0.0 mm 0.00 in0.0 mm 0.00 in0.0 mm
06:15 AM 39.9°F4.4°C 27.2°F-2.7°C 60% 6.0 mph ESE9.7 kmh ESE 9.0 mph14.5 kmh 30.27 in1025.1 mb 0.00 in0.0 mm 0.00 in0.0 mm 0.00 in0.0 mm
06:05 AM 39.7°F4.3°C 27.0°F-2.8°C 60% Calm Calm 10.0 mph16.1 kmh 30.27 in1025.1 mb 0.00 in0.0 mm 0.00 in0.0 mm 0.00 in0.0 mm
05:55 AM 39.5°F4.2°C 26.8°F-2.9°C 60% 1.0 mph SSE1.6 kmh SSE 11.0 mph17.7 kmh 30.27 in1025.1 mb 0.00 in0.0 mm 0.00 in0.0 mm 0.00 in0.0 mm
05:45 AM 39.5°F4.2°C 27.2°F-2.7°C 61% Calm Calm 12.0 mph19.3 kmh 30.27 in1025.1 mb 0.00 in0.0 mm 0.00 in0.0 mm 0.00 in0.0 mm
05:35 AM 39.6°F4.2°C 27.3°F-2.6°C 61% 2.0 mph S3.2 kmh S 11.0 mph17.7 kmh 30.27 in1025.1 mb 0.00 in0.0 mm 0.00 in0.0 mm 0.00 in0.0 mm
05:25 AM 39.6°F4.2°C 27.3°F-2.6°C 61% 7.0 mph ESE11.3 kmh ESE 12.0 mph19.3 kmh 30.26 in1024.7 mb 0.00 in0.0 mm 0.00 in0.0 mm 0.00 in0.0 mm
05:15 AM 39.7°F4.3°C 27.4°F-2.6°C 61% 8.0 mph SE12.9 kmh SE 8.0 mph12.9 kmh 30.27 in1025.1 mb 0.00 in0.0 mm 0.00 in0.0 mm 0.00 in0.0 mm
05:05 AM 39.6°F4.2°C 27.3°F-2.6°C 61% 6.0 mph SE9.7 kmh SE 13.0 mph20.9 kmh 30.27 in1025.1 mb 0.00 in0.0 mm 0.00 in0.0 mm 0.00 in0.0 mm
04:55 AM 39.6°F4.2°C 27.7°F-2.4°C 62% 3.0 mph S4.8 kmh S 11.0 mph17.7 kmh 30.27 in1025.1 mb 0.00 in0.0 mm 0.00 in0.0 mm 0.00 in0.0 mm
04:45 AM 39.4°F4.1°C 27.5°F-2.5°C 62% 3.0 mph SE4.8 kmh SE 7.0 mph11.3 kmh 30.27 in1025.1 mb 0.00 in0.0 mm 0.00 in0.0 mm 0.00 in0.0 mm
04:35 AM 39.3°F4.1°C 27.4°F-2.6°C 62% 8.0 mph S12.9 kmh S 11.0 mph17.7 kmh 30.27 in1025.1 mb 0.00 in0.0 mm 0.00 in0.0 mm 0.00 in0.0 mm
04:25 AM 39.2°F4.0°C 27.3°F-2.6°C 62% 1.0 mph ESE1.6 kmh ESE 10.0 mph16.1 kmh 30.27 in1025.1 mb 0.00 in0.0 mm 0.00 in0.0 mm 0.00 in0.0 mm
04:15 AM 39.3°F4.1°C 27.0°F-2.8°C 61% 8.0 mph SSE12.9 kmh SSE 13.0 mph20.9 kmh 30.27 in1025.1 mb 0.00 in0.0 mm 0.00 in0.0 mm 0.00 in0.0 mm
04:05 AM 39.2°F4.0°C 27.3°F-2.6°C 62% 2.0 mph S3.2 kmh S 10.0 mph16.1 kmh 30.28 in1025.4 mb 0.00 in0.0 mm 0.00 in0.0 mm 0.00 in0.0 mm
03:55 AM 38.9°F3.8°C 27.4°F-2.6°C 63% 1.0 mph SE1.6 kmh SE 8.0 mph12.9 kmh 30.28 in1025.4 mb 0.00 in0.0 mm 0.00 in0.0 mm 0.00 in0.0 mm
03:45 AM 38.6°F3.7°C 27.1°F-2.7°C 63% Calm Calm 10.0 mph16.1 kmh 30.28 in1025.4 mb 0.00 in0.0 mm 0.00 in0.0 mm 0.00 in0.0 mm
03:35 AM 38.3°F3.5°C 26.8°F-2.9°C 63% Calm Calm 11.0 mph17.7 kmh 30.28 in1025.4 mb 0.00 in0.0 mm 0.00 in0.0 mm 0.00 in0.0 mm
03:25 AM 38.1°F3.4°C 27.0°F-2.8°C 64% Calm Calm 6.0 mph9.7 kmh 30.28 in1025.4 mb 0.00 in0.0 mm 0.00 in0.0 mm 0.00 in0.0 mm
03:15 AM 37.9°F3.3°C 26.5°F-3.1°C 63% 1.0 mph ESE1.6 kmh ESE 5.0 mph8.0 kmh 30.28 in1025.4 mb 0.00 in0.0 mm 0.00 in0.0 mm 0.00 in0.0 mm
03:05 AM 37.9°F3.3°C 26.5°F-3.1°C 63% Calm Calm 8.0 mph12.9 kmh 30.28 in1025.4 mb 0.00 in0.0 mm 0.00 in0.0 mm 0.00 in0.0 mm
02:55 AM 37.9°F3.3°C 26.5°F-3.1°C 63% 4.0 mph SSE6.4 kmh SSE 7.0 mph11.3 kmh 30.28 in1025.4 mb 0.00 in0.0 mm 0.00 in0.0 mm 0.00 in0.0 mm
02:45 AM 37.8°F3.2°C 26.7°F-2.9°C 64% 6.0 mph SSE9.7 kmh SSE 12.0 mph19.3 kmh 30.28 in1025.4 mb 0.00 in0.0 mm 0.00 in0.0 mm 0.00 in0.0 mm
02:35 AM 37.3°F2.9°C 26.3°F-3.2°C 64% 4.0 mph SE6.4 kmh SE 11.0 mph17.7 kmh 30.28 in1025.4 mb 0.00 in0.0 mm 0.00 in0.0 mm 0.00 in0.0 mm
02:25 AM 36.8°F2.7°C 26.2°F-3.2°C 65% 4.0 mph S6.4 kmh S 7.0 mph11.3 kmh 30.28 in1025.4 mb 0.00 in0.0 mm 0.00 in0.0 mm 0.00 in0.0 mm
02:15 AM 36.4°F2.4°C 25.8°F-3.4°C 65% Calm Calm 7.0 mph11.3 kmh 30.29 in1025.7 mb 0.00 in0.0 mm 0.00 in0.0 mm 0.00 in0.0 mm
02:05 AM 36.3°F2.4°C 25.3°F-3.7°C 64% 1.0 mph S1.6 kmh S 8.0 mph12.9 kmh 30.29 in1025.7 mb 0.00 in0.0 mm 0.00 in0.0 mm 0.00 in0.0 mm
01:55 AM 36.2°F2.3°C 25.2°F-3.8°C 64% Calm Calm 7.0 mph11.3 kmh 30.29 in1025.7 mb 0.00 in0.0 mm 0.00 in0.0 mm 0.00 in0.0 mm
01:45 AM 36.1°F2.3°C 25.1°F-3.8°C 64% 3.0 mph S4.8 kmh S 5.0 mph8.0 kmh 30.29 in1025.7 mb 0.00 in0.0 mm 0.00 in0.0 mm 0.00 in0.0 mm
01:35 AM 36.1°F2.3°C 25.1°F-3.8°C 64% Calm Calm 7.0 mph11.3 kmh 30.28 in1025.4 mb 0.00 in0.0 mm 0.00 in0.0 mm 0.00 in0.0 mm
01:25 AM 35.9°F2.2°C 24.9°F-3.9°C 64% Calm Calm 8.0 mph12.9 kmh 30.28 in1025.4 mb 0.00 in0.0 mm 0.00 in0.0 mm 0.00 in0.0 mm
01:15 AM 35.8°F2.1°C 24.8°F-4.0°C 64% 6.0 mph SSE9.7 kmh SSE 7.0 mph11.3 kmh 30.28 in1025.4 mb 0.00 in0.0 mm 0.00 in0.0 mm 0.00 in0.0 mm
01:05 AM 35.6°F2.0°C 25.0°F-3.9°C 65% Calm Calm 8.0 mph12.9 kmh 30.28 in1025.4 mb 0.00 in0.0 mm 0.00 in0.0 mm 0.00 in0.0 mm
12:55 AM 35.5°F1.9°C 24.5°F-4.2°C 64% 4.0 mph SE6.4 kmh SE 5.0 mph8.0 kmh 30.28 in1025.4 mb 0.00 in0.0 mm 0.00 in0.0 mm 0.00 in0.0 mm
12:45 AM 35.4°F1.9°C 24.5°F-4.2°C 64% 1.0 mph ESE1.6 kmh ESE 4.0 mph6.4 kmh 30.28 in1025.4 mb 0.00 in0.0 mm 0.00 in0.0 mm 0.00 in0.0 mm
12:35 AM 35.4°F1.9°C 24.5°F-4.2°C 64% 1.0 mph SSE1.6 kmh SSE 3.0 mph4.8 kmh 30.28 in1025.4 mb 0.00 in0.0 mm 0.00 in0.0 mm 0.00 in0.0 mm
12:25 AM 35.3°F1.8°C 24.4°F-4.2°C 64% Calm Calm 4.0 mph6.4 kmh 30.28 in1025.4 mb 0.00 in0.0 mm 0.00 in0.0 mm 0.00 in0.0 mm
12:15 AM 35.2°F1.8°C 24.3°F-4.3°C 64% Calm Calm 3.0 mph4.8 kmh 30.28 in1025.4 mb 0.00 in0.0 mm 0.00 in0.0 mm 0.00 in0.0 mm
12:05 AM 35.1°F1.7°C 24.2°F-4.3°C 64% Calm Calm 3.0 mph4.8 kmh 30.28 in1025.4 mb 0.00 in0.0 mm 0.00 in0.0 mm 0.00 in0.0 mm